Time;durP1;ratioP1;P1;durP2;ratioP2;P2;SDS_P1;SDS_P2;PMS_P1;PMS_P2;Temp;Humidity;BMP_temperature;BMP_pressure;BME280_temperature;BME280_humidity;BME280_pressure;Samples;Min_cycle;Max_cycle;Signal;HPM_P1;HPM_P2
2023/01/23 00:01:22;;;;;;;45.05;28.05;;;-0.20;99.90;;;;;;5007584;28;20029;-74
2023/01/23 00:03:47;;;;;;;44.92;26.75;;;-0.20;99.90;;;;;;5010463;28;20114;-73
2023/01/23 00:06:16;;;;;;;43.38;28.05;;;-0.20;99.90;;;;;;5016738;28;20050;-74
2023/01/23 00:08:43;;;;;;;44.67;28.08;;;-0.20;99.90;;;;;;5014191;28;20490;-74
2023/01/23 00:11:18;;;;;;;42.67;27.05;;;-0.20;99.90;;;;;;5016225;28;20444;-74
2023/01/23 00:13:44;;;;;;;34.65;23.92;;;-0.20;99.90;;;;;;5011263;28;20058;-74
2023/01/23 00:16:16;;;;;;;43.00;28.63;;;-0.20;99.90;;;;;;5016435;28;20490;-74
2023/01/23 00:18:42;;;;;;;44.35;27.20;;;-0.20;99.90;;;;;;5011257;28;20081;-74
2023/01/23 00:21:10;;;;;;;43.90;29.20;;;-0.20;99.90;;;;;;5016545;28;20422;-74
2023/01/23 00:23:37;;;;;;;39.25;27.33;;;-0.20;99.90;;;;;;5011935;28;20034;-73
2023/01/23 00:26:09;;;;;;;35.17;23.55;;;-0.20;99.90;;;;;;5014807;28;20421;-73
2023/01/23 00:28:35;;;;;;;41.30;25.95;;;-0.20;99.90;;;;;;5011706;28;20077;-74
2023/01/23 00:31:07;;;;;;;40.05;27.90;;;-0.20;99.90;;;;;;5016095;28;20437;-74
2023/01/23 00:33:32;;;;;;;41.55;26.83;;;-0.20;99.90;;;;;;5014690;28;20057;-73
2023/01/23 00:35:59;;;;;;;40.28;26.05;;;-0.20;99.90;;;;;;5016086;28;20025;-74
2023/01/23 00:38:24;;;;;;;39.03;25.70;;;-0.20;99.90;;;;;;5012832;28;20036;-73
2023/01/23 00:40:50;;;;;;;38.95;26.23;;;-0.20;99.90;;;;;;5011618;28;20101;-73
2023/01/23 00:43:16;;;;;;;43.47;28.58;;;-0.20;99.90;;;;;;5012083;28;20445;-73
2023/01/23 00:45:42;;;;;;;45.80;27.65;;;-0.20;99.90;;;;;;5012070;28;20030;-73
2023/01/23 00:48:07;;;;;;;42.70;27.05;;;-0.20;99.90;;;;;;5013506;28;20414;-73
2023/01/23 00:50:33;;;;;;;40.78;25.63;;;-0.20;99.90;;;;;;5012837;28;20410;-74
2023/01/23 00:52:58;;;;;;;41.28;26.85;;;-0.20;99.90;;;;;;5014672;28;20022;-74
2023/01/23 00:55:24;;;;;;;35.55;23.25;;;-0.20;99.90;;;;;;5016226;28;20037;-74
2023/01/23 00:57:50;;;;;;;40.72;26.80;;;-0.20;99.90;;;;;;5015159;28;20462;-73
2023/01/23 01:00:16;;;;;;;39.15;23.23;;;-0.20;99.90;;;;;;5015674;28;20021;-73
2023/01/23 01:02:42;;;;;;;43.15;25.70;;;-0.20;99.90;;;;;;5016105;28;20104;-74
2023/01/23 01:05:08;;;;;;;43.50;26.02;;;-0.20;99.90;;;;;;5013358;28;20060;-74
2023/01/23 01:07:34;;;;;;;37.33;24.30;;;-0.20;99.90;;;;;;5012856;28;20398;-74
2023/01/23 01:09:59;;;;;;;33.70;23.02;;;-0.20;99.90;;;;;;5011112;28;20113;-74
2023/01/23 01:12:25;;;;;;;40.05;26.30;;;-0.10;99.90;;;;;;5015520;28;20088;-74
2023/01/23 01:14:51;;;;;;;41.33;26.80;;;-0.10;99.90;;;;;;5010395;28;20402;-74
2023/01/23 01:17:16;;;;;;;36.10;25.55;;;-0.10;99.90;;;;;;5016959;28;20030;-73
2023/01/23 01:19:42;;;;;;;40.17;25.58;;;-0.10;99.90;;;;;;5014799;28;20034;-74
2023/01/23 01:22:08;;;;;;;33.28;22.58;;;-0.20;99.90;;;;;;5016902;28;20022;-74
2023/01/23 01:24:33;;;;;;;42.70;24.90;;;-0.20;99.90;;;;;;5010554;28;20030;-73
2023/01/23 01:26:59;;;;;;;34.60;23.60;;;-0.20;99.90;;;;;;5015234;28;20046;-74
2023/01/23 01:29:25;;;;;;;36.50;24.23;;;-0.10;99.90;;;;;;5012726;28;20038;-73
2023/01/23 01:31:50;;;;;;;40.03;26.90;;;-0.10;99.90;;;;;;5016810;28;20088;-73
2023/01/23 01:34:16;;;;;;;42.28;24.83;;;-0.20;99.90;;;;;;5014667;28;20100;-73
2023/01/23 01:36:42;;;;;;;38.33;25.08;;;-0.10;99.90;;;;;;5015381;28;20490;-73
2023/01/23 01:39:07;;;;;;;37.03;23.90;;;-0.10;99.90;;;;;;5011098;28;20029;-73
2023/01/23 01:41:34;;;;;;;38.33;23.85;;;-0.10;99.90;;;;;;5012898;28;20040;-73
2023/01/23 01:44:00;;;;;;;36.25;26.20;;;-0.20;99.90;;;;;;5012271;28;20509;-73
2023/01/23 01:46:28;;;;;;;38.75;27.63;;;-0.20;99.90;;;;;;5014179;28;20021;-73
2023/01/23 01:49:23;;;;;;;40.88;27.88;;;-0.20;99.90;;;;;;5011653;28;20041;-73
2023/01/23 01:51:52;;;;;;;41.78;27.17;;;-0.20;99.90;;;;;;5014633;28;20057;-73
2023/01/23 01:54:23;;;;;;;39.00;26.00;;;-0.20;99.90;;;;;;5012703;28;20038;-74
2023/01/23 01:57:00;;;;;;;44.08;27.52;;;-0.20;99.90;;;;;;5018269;28;20058;-73
2023/01/23 01:59:29;;;;;;;39.95;27.10;;;-0.20;99.90;;;;;;5013439;28;20044;-73
2023/01/23 02:02:11;;;;;;;39.83;26.35;;;-0.20;99.90;;;;;;5019075;28;20022;-73
2023/01/23 02:04:42;;;;;;;40.80;24.45;;;-0.20;99.90;;;;;;5015857;28;20025;-73
2023/01/23 02:07:17;;;;;;;36.17;23.90;;;-0.20;99.90;;;;;;5020298;28;20049;-73
2023/01/23 02:09:44;;;;;;;34.42;24.50;;;-0.20;99.90;;;;;;5011883;28;20479;-73
2023/01/23 02:12:09;;;;;;;37.25;23.85;;;-0.20;99.90;;;;;;5019021;28;20038;-74
2023/01/23 02:14:35;;;;;;;37.03;24.25;;;-0.20;99.90;;;;;;5013413;28;20026;-73
2023/01/23 02:17:02;;;;;;;35.08;23.80;;;-0.20;99.90;;;;;;5011166;28;20030;-74
2023/01/23 02:19:39;;;;;;;26.65;17.67;;;-0.20;99.90;;;;;;5010906;28;20067;-74
2023/01/23 02:22:15;;;;;;;29.88;20.40;;;-0.20;99.90;;;;;;5019394;28;20080;-74
2023/01/23 02:25:02;;;;;;;41.50;24.85;;;-0.20;99.90;;;;;;5012263;28;20026;-74
2023/01/23 02:27:27;;;;;;;38.53;25.63;;;-0.20;99.90;;;;;;5016182;28;20509;-73
2023/01/23 02:29:55;;;;;;;34.38;22.50;;;-0.20;99.90;;;;;;5011013;28;20026;-73
2023/01/23 02:32:23;;;;;;;34.15;23.13;;;-0.20;99.90;;;;;;5015686;28;20398;-74
2023/01/23 02:34:51;;;;;;;32.28;20.67;;;-0.20;99.90;;;;;;5041395;28;20037;-73
2023/01/23 02:37:17;;;;;;;36.78;24.60;;;-0.20;99.90;;;;;;5014845;28;20113;-73
2023/01/23 02:39:44;;;;;;;32.90;20.85;;;-0.20;99.90;;;;;;5014354;28;20022;-73
2023/01/23 02:42:10;;;;;;;41.63;24.80;;;-0.20;99.90;;;;;;5016247;28;20106;-73
2023/01/23 02:44:35;;;;;;;35.35;23.08;;;-0.20;99.90;;;;;;5015423;28;20434;-73
2023/01/23 02:47:06;;;;;;;38.35;24.90;;;-0.20;99.90;;;;;;5017348;28;20048;-73
2023/01/23 02:49:32;;;;;;;29.88;19.92;;;-0.20;99.90;;;;;;5014793;28;20390;-73
2023/01/23 02:51:58;;;;;;;43.10;25.98;;;-0.20;99.90;;;;;;5018050;28;20049;-73
2023/01/23 02:54:25;;;;;;;40.30;26.10;;;-0.20;99.90;;;;;;5015011;28;20095;-73
2023/01/23 02:56:51;;;;;;;36.53;23.80;;;-0.10;99.90;;;;;;5019048;28;20505;-73
2023/01/23 03:02:03;;;;;;;34.60;19.65;;;-0.20;99.90;;;;;;5019195;28;20080;-73
2023/01/23 03:04:28;;;;;;;38.63;24.02;;;-0.20;99.90;;;;;;5011704;28;20405;-73
2023/01/23 03:06:54;;;;;;;37.67;25.52;;;-0.20;99.90;;;;;;5017833;28;20028;-73
2023/01/23 03:09:21;;;;;;;38.08;26.00;;;-0.20;99.90;;;;;;5013362;28;20022;-74
2023/01/23 03:11:47;;;;;;;42.78;25.50;;;-0.20;99.90;;;;;;5017449;28;20022;-73
2023/01/23 03:14:17;;;;;;;35.90;23.90;;;-0.20;99.90;;;;;;5012359;28;20018;-74
2023/01/23 03:16:45;;;;;;;37.13;25.75;;;-0.20;99.90;;;;;;5017951;28;20028;-74
2023/01/23 03:19:11;;;;;;;39.50;24.05;;;-0.20;99.90;;;;;;5012300;28;20018;-74
2023/01/23 03:21:39;;;;;;;37.67;25.10;;;-0.20;99.90;;;;;;5017771;28;20036;-74
2023/01/23 03:24:07;;;;;;;38.38;25.83;;;-0.20;99.90;;;;;;5011628;28;20101;-74
2023/01/23 03:26:33;;;;;;;42.80;23.88;;;-0.10;99.90;;;;;;5018634;28;20030;-73
2023/01/23 03:31:43;;;;;;;38.33;25.45;;;-0.20;99.90;;;;;;5016337;28;20405;-73
2023/01/23 03:34:09;;;;;;;37.92;25.00;;;-0.20;99.90;;;;;;5014903;28;20044;-74
2023/01/23 03:36:36;;;;;;;43.90;27.30;;;-0.20;99.90;;;;;;5017028;28;20030;-73
2023/01/23 03:41:52;;;;;;;37.22;23.10;;;-0.20;99.90;;;;;;5017565;28;20528;-73
2023/01/23 03:44:18;;;;;;;36.33;24.77;;;-0.20;99.90;;;;;;5015950;28;20049;-73
2023/01/23 03:46:48;;;;;;;42.72;27.98;;;-0.20;99.90;;;;;;5017815;28;20025;-73
2023/01/23 03:49:14;;;;;;;38.67;25.98;;;-0.20;99.90;;;;;;5012224;28;20033;-73
2023/01/23 03:51:40;;;;;;;43.20;28.10;;;-0.10;99.90;;;;;;5015671;28;20034;-73
2023/01/23 03:54:06;;;;;;;41.65;25.73;;;-0.20;99.90;;;;;;5013767;28;20037;-74
2023/01/23 03:56:32;;;;;;;35.92;23.15;;;-0.20;99.90;;;;;;5015292;28;20095;-73
2023/01/23 03:58:57;;;;;;;41.33;25.90;;;-0.10;99.90;;;;;;5012741;28;20148;-73
2023/01/23 04:01:23;;;;;;;37.70;25.17;;;-0.20;99.90;;;;;;5015499;28;20018;-74
2023/01/23 04:03:49;;;;;;;33.47;21.75;;;-0.10;99.90;;;;;;4994986;28;20407;-74
2023/01/23 04:06:15;;;;;;;36.67;23.63;;;-0.10;99.90;;;;;;5017209;28;20020;-74
2023/01/23 04:08:41;;;;;;;43.47;27.33;;;-0.10;99.90;;;;;;5011892;28;20045;-73
2023/01/23 04:11:09;;;;;;;39.05;24.67;;;-0.10;99.90;;;;;;5017239;28;20022;-73
2023/01/23 04:13:35;;;;;;;38.78;26.65;;;-0.10;99.90;;;;;;5012404;28;20100;-74
2023/01/23 04:16:00;;;;;;;36.50;21.83;;;-0.10;99.90;;;;;;5016485;28;20017;-73
2023/01/23 04:18:27;;;;;;;39.13;26.17;;;-0.10;99.90;;;;;;5013649;28;20032;-73
2023/01/23 04:20:53;;;;;;;32.00;21.40;;;-0.10;99.90;;;;;;5015709;28;20018;-73
2023/01/23 04:23:18;;;;;;;41.78;25.40;;;-0.10;99.90;;;;;;5014845;28;20029;-74
2023/01/23 04:25:44;;;;;;;39.38;25.92;;;-0.10;99.90;;;;;;5013540;28;20022;-74
2023/01/23 04:28:10;;;;;;;42.75;27.52;;;-0.20;99.90;;;;;;5015681;28;20489;-74
2023/01/23 04:30:35;;;;;;;38.97;23.77;;;-0.10;99.90;;;;;;5014701;28;20036;-74
2023/01/23 04:33:01;;;;;;;29.23;16.80;;;-0.10;99.90;;;;;;5015619;28;20034;-73
2023/01/23 04:35:27;;;;;;;40.03;24.70;;;-0.10;99.90;;;;;;5015522;28;20034;-74
2023/01/23 04:37:53;;;;;;;31.02;22.85;;;-0.10;99.90;;;;;;5014786;28;20030;-73
2023/01/23 04:40:18;;;;;;;39.90;25.20;;;-0.10;99.90;;;;;;5014115;28;20045;-73
2023/01/23 04:42:44;;;;;;;37.83;25.33;;;-0.10;99.90;;;;;;5015206;28;20029;-73
2023/01/23 04:45:10;;;;;;;38.90;23.90;;;-0.10;99.90;;;;;;5012297;28;20042;-73
2023/01/23 04:47:36;;;;;;;36.72;22.33;;;-0.10;99.90;;;;;;5017532;28;20145;-73
2023/01/23 04:50:02;;;;;;;32.10;19.45;;;-0.10;99.90;;;;;;5011606;28;20025;-73
2023/01/23 04:52:28;;;;;;;41.95;26.30;;;-0.10;99.90;;;;;;5017323;28;20407;-74
2023/01/23 04:54:53;;;;;;;36.28;24.45;;;-0.10;99.90;;;;;;5008231;28;20033;-73
2023/01/23 04:57:19;;;;;;;41.17;25.67;;;-0.10;99.90;;;;;;5017028;28;20026;-73
2023/01/23 04:59:45;;;;;;;38.30;23.98;;;-0.10;99.90;;;;;;5010697;28;20036;-74
2023/01/23 05:02:11;;;;;;;32.60;23.50;;;-0.10;99.90;;;;;;5017474;28;20026;-74
2023/01/23 05:04:37;;;;;;;38.35;24.77;;;-0.10;99.90;;;;;;5009707;28;20113;-74
2023/01/23 05:07:03;;;;;;;36.63;25.10;;;-0.10;99.90;;;;;;5017111;28;20057;-73
2023/01/23 05:09:28;;;;;;;35.88;22.05;;;-0.10;99.90;;;;;;5010511;28;20034;-73
2023/01/23 05:11:54;;;;;;;40.45;20.98;;;-0.10;99.90;;;;;;5016787;28;20022;-74
2023/01/23 05:14:22;;;;;;;37.00;23.80;;;-0.10;99.90;;;;;;5010040;28;20064;-73
2023/01/23 05:16:48;;;;;;;36.88;24.08;;;-0.10;99.90;;;;;;5016913;28;20123;-73
2023/01/23 05:19:14;;;;;;;30.70;20.95;;;-0.10;99.90;;;;;;5007668;28;20030;-73
2023/01/23 05:21:40;;;;;;;27.88;18.98;;;-0.10;99.90;;;;;;5016889;28;20018;-74
2023/01/23 05:24:06;;;;;;;36.00;22.35;;;-0.10;99.90;;;;;;5009597;28;20029;-74
2023/01/23 05:26:33;;;;;;;37.85;25.50;;;-0.10;99.90;;;;;;5016637;28;20042;-74
2023/01/23 05:28:59;;;;;;;39.30;25.52;;;-0.20;99.90;;;;;;5013618;28;20058;-73
2023/01/23 05:31:25;;;;;;;32.50;18.38;;;-0.20;99.90;;;;;;5020991;28;20022;-73
2023/01/23 05:33:51;;;;;;;33.53;21.83;;;-0.20;99.90;;;;;;5016639;28;20037;-73
2023/01/23 05:36:17;;;;;;;35.60;24.58;;;-0.20;99.90;;;;;;5020324;28;20021;-73
2023/01/23 05:38:42;;;;;;;42.70;25.38;;;-0.10;99.90;;;;;;5014845;28;20037;-72
2023/01/23 05:41:08;;;;;;;37.05;25.30;;;-0.20;99.90;;;;;;5019634;28;20022;-72
2023/01/23 05:43:34;;;;;;;40.38;26.33;;;-0.20;99.90;;;;;;5016161;28;20105;-72
2023/01/23 05:46:00;;;;;;;32.50;20.90;;;-0.20;99.90;;;;;;5018224;28;20093;-72
2023/01/23 05:48:26;;;;;;;39.90;26.33;;;-0.20;99.90;;;;;;5015878;28;20034;-72
2023/01/23 05:50:52;;;;;;;40.97;24.63;;;-0.20;99.90;;;;;;5019384;28;20099;-73
2023/01/23 05:53:17;;;;;;;38.15;25.02;;;-0.10;99.90;;;;;;5016821;28;20034;-72
2023/01/23 05:55:43;;;;;;;32.70;22.70;;;-0.20;99.90;;;;;;5015728;28;20073;-73
2023/01/23 05:58:09;;;;;;;39.83;25.77;;;-0.20;99.90;;;;;;5016882;28;20053;-73
2023/01/23 06:00:34;;;;;;;35.50;25.02;;;-0.20;99.90;;;;;;5012702;28;20026;-72
2023/01/23 06:03:00;;;;;;;38.97;22.90;;;-0.20;99.90;;;;;;5017176;28;20034;-72
2023/01/23 06:05:26;;;;;;;37.85;25.58;;;-0.20;99.90;;;;;;5015872;28;20029;-72
2023/01/23 06:07:52;;;;;;;28.33;17.25;;;-0.20;99.90;;;;;;5019122;28;20372;-72
2023/01/23 06:10:18;;;;;;;39.00;26.65;;;-0.20;99.90;;;;;;5017233;28;20115;-72
2023/01/23 06:12:44;;;;;;;41.00;25.95;;;-0.20;99.90;;;;;;5019220;28;20034;-72
2023/01/23 06:15:10;;;;;;;41.10;25.02;;;-0.20;99.90;;;;;;5015852;28;20041;-72
2023/01/23 06:17:36;;;;;;;34.65;23.27;;;-0.20;99.90;;;;;;5018568;28;20030;-72
2023/01/23 06:20:03;;;;;;;36.33;23.60;;;-0.20;99.90;;;;;;5014418;28;20551;-75
2023/01/23 06:22:29;;;;;;;39.25;21.65;;;-0.20;99.90;;;;;;5019826;28;20018;-75
2023/01/23 06:24:54;;;;;;;38.03;26.38;;;-0.20;99.90;;;;;;5012740;28;20101;-75
2023/01/23 06:27:20;;;;;;;42.08;26.58;;;-0.20;99.90;;;;;;5019711;28;20022;-74
2023/01/23 06:29:46;;;;;;;34.03;20.40;;;-0.20;99.90;;;;;;5015282;28;20030;-75
2023/01/23 06:32:12;;;;;;;33.58;23.55;;;-0.20;99.90;;;;;;5019739;28;20065;-75
2023/01/23 06:34:38;;;;;;;41.72;27.42;;;-0.20;99.90;;;;;;5012174;28;20034;-75
2023/01/23 06:37:03;;;;;;;41.42;26.85;;;-0.20;99.90;;;;;;5018196;28;20037;-75
2023/01/23 06:39:29;;;;;;;45.05;26.67;;;-0.20;99.90;;;;;;5013882;28;20524;-72
2023/01/23 06:41:55;;;;;;;40.67;24.55;;;-0.20;99.90;;;;;;5019323;28;20125;-72
2023/01/23 06:44:22;;;;;;;34.08;23.02;;;-0.20;99.90;;;;;;5016457;28;20024;-73
2023/01/23 06:46:48;;;;;;;45.20;26.10;;;-0.20;99.90;;;;;;5018371;28;20022;-73
2023/01/23 06:49:14;;;;;;;40.08;26.73;;;-0.20;99.90;;;;;;5013495;28;20073;-72
2023/01/23 06:51:40;;;;;;;38.58;24.17;;;-0.20;99.90;;;;;;5016578;28;20066;-72
2023/01/23 06:54:05;;;;;;;40.85;24.50;;;-0.30;99.90;;;;;;5013809;28;20220;-73
2023/01/23 06:56:31;;;;;;;40.53;26.48;;;-0.30;99.90;;;;;;5016120;28;20029;-73
2023/01/23 06:58:56;;;;;;;32.13;20.48;;;-0.30;99.90;;;;;;5012696;28;20034;-73
2023/01/23 07:01:23;;;;;;;35.92;24.20;;;-0.30;99.90;;;;;;5019207;28;20029;-73
2023/01/23 07:03:48;;;;;;;40.05;25.65;;;-0.30;99.90;;;;;;5011460;28;20027;-73
2023/01/23 07:06:15;;;;;;;40.88;25.00;;;-0.30;99.90;;;;;;5014895;28;20022;-74
2023/01/23 07:08:41;;;;;;;40.05;26.38;;;-0.20;99.90;;;;;;5013382;28;20105;-74
2023/01/23 07:11:08;;;;;;;42.15;26.23;;;-0.20;99.90;;;;;;5018300;28;20048;-73
2023/01/23 07:13:34;;;;;;;41.92;25.45;;;-0.20;99.90;;;;;;5014202;28;20109;-73
2023/01/23 07:16:00;;;;;;;44.85;24.63;;;-0.20;99.90;;;;;;5017332;28;20053;-73
2023/01/23 07:18:27;;;;;;;42.75;27.85;;;-0.30;99.90;;;;;;5015280;28;20379;-73
2023/01/23 07:20:53;;;;;;;46.25;26.58;;;-0.30;99.90;;;;;;5015275;28;20112;-73
2023/01/23 07:23:19;;;;;;;32.10;21.65;;;-0.30;99.90;;;;;;5016141;28;20619;-73
2023/01/23 07:25:45;;;;;;;41.95;26.38;;;-0.30;99.90;;;;;;5015281;28;20072;-73
2023/01/23 07:28:11;;;;;;;42.55;25.13;;;-0.30;99.90;;;;;;5016611;28;20030;-73
2023/01/23 07:30:37;;;;;;;38.10;23.77;;;-0.20;99.90;;;;;;5017115;28;20026;-73
2023/01/23 07:33:03;;;;;;;43.03;27.58;;;-0.20;99.90;;;;;;5015640;28;20205;-74
2023/01/23 07:35:29;;;;;;;39.38;26.63;;;-0.20;99.90;;;;;;5017016;28;20034;-73
2023/01/23 07:37:55;;;;;;;39.28;24.88;;;-0.20;99.90;;;;;;5017022;28;20084;-74
2023/01/23 07:40:21;;;;;;;36.38;25.27;;;-0.20;99.90;;;;;;5014744;28;20113;-74
2023/01/23 07:42:47;;;;;;;39.13;23.65;;;-0.20;99.90;;;;;;5016608;28;20054;-74
2023/01/23 07:45:13;;;;;;;44.72;27.98;;;-0.20;99.90;;;;;;5015761;28;20386;-74
2023/01/23 07:47:39;;;;;;;42.30;28.02;;;-0.30;99.90;;;;;;5017290;28;20029;-74
2023/01/23 07:50:11;;;;;;;45.67;25.27;;;-0.20;99.90;;;;;;5008566;28;20030;-74
2023/01/23 07:52:38;;;;;;;36.20;20.52;;;-0.30;99.90;;;;;;5018425;28;20042;-74
2023/01/23 07:55:04;;;;;;;35.97;23.13;;;-0.20;99.90;;;;;;5010336;28;20037;-74
2023/01/23 07:57:32;;;;;;;36.35;24.25;;;-0.20;99.90;;;;;;5018182;28;20026;-74
2023/01/23 07:59:58;;;;;;;34.30;22.52;;;-0.20;99.90;;;;;;5005899;28;20121;-74
2023/01/23 08:02:24;;;;;;;38.47;25.40;;;-0.20;99.90;;;;;;5015541;28;20046;-74
2023/01/23 08:04:49;;;;;;;40.67;26.92;;;-0.20;99.90;;;;;;5013290;28;20105;-74
2023/01/23 08:07:15;;;;;;;41.17;25.10;;;-0.20;99.90;;;;;;5015561;28;20072;-74
2023/01/23 08:09:41;;;;;;;41.33;26.98;;;-0.20;99.90;;;;;;5012760;28;20034;-74
2023/01/23 08:12:06;;;;;;;36.80;23.77;;;-0.20;99.90;;;;;;5016756;28;20033;-74
2023/01/23 08:14:32;;;;;;;31.45;18.30;;;-0.10;99.90;;;;;;5011625;28;20487;-73
2023/01/23 08:16:58;;;;;;;41.63;26.90;;;-0.10;99.90;;;;;;5016828;28;20025;-73
2023/01/23 08:19:26;;;;;;;36.17;25.10;;;-0.10;99.90;;;;;;5012834;28;20125;-72
2023/01/23 08:21:52;;;;;;;39.38;27.52;;;-0.10;99.90;;;;;;5015270;28;20525;-73
2023/01/23 08:24:18;;;;;;;43.13;27.00;;;-0.10;99.90;;;;;;5010890;28;20038;-73
2023/01/23 08:26:44;;;;;;;41.63;27.88;;;-0.10;99.90;;;;;;5014247;28;20106;-73
2023/01/23 08:29:10;;;;;;;38.72;24.17;;;-0.10;99.90;;;;;;5012995;28;20489;-74
2023/01/23 08:31:36;;;;;;;41.67;27.27;;;-0.10;99.90;;;;;;5015446;28;20021;-74
2023/01/23 08:34:02;;;;;;;33.95;23.73;;;-0.10;99.90;;;;;;5010690;28;20048;-73
2023/01/23 08:36:28;;;;;;;36.45;22.88;;;0.00;99.90;;;;;;5014590;28;20445;-73
2023/01/23 08:38:54;;;;;;;44.05;29.38;;;-0.10;99.90;;;;;;5010707;28;20033;-73
2023/01/23 08:41:20;;;;;;;36.28;24.25;;;-0.10;99.90;;;;;;5013151;28;20041;-73
2023/01/23 08:43:46;;;;;;;38.15;23.95;;;0.00;99.90;;;;;;5012175;28;20026;-74
2023/01/23 08:46:12;;;;;;;37.17;24.25;;;0.00;99.90;;;;;;5013206;28;20101;-74
2023/01/23 08:48:38;;;;;;;38.72;24.95;;;0.00;99.90;;;;;;5013117;28;20039;-73
2023/01/23 08:51:06;;;;;;;39.10;27.88;;;0.00;99.90;;;;;;5014515;28;20042;-73
2023/01/23 08:53:32;;;;;;;38.35;23.63;;;0.10;99.90;;;;;;5011609;28;20053;-73
2023/01/23 08:56:07;;;;;;;34.05;22.48;;;0.10;99.90;;;;;;5013616;28;20065;-74
2023/01/23 08:58:33;;;;;;;38.28;25.73;;;0.10;99.90;;;;;;5011241;28;20504;-74
2023/01/23 09:00:59;;;;;;;40.28;28.02;;;0.10;99.90;;;;;;5012113;28;20028;-73
2023/01/23 09:03:25;;;;;;;39.63;27.45;;;0.10;99.90;;;;;;5011965;28;20034;-73
2023/01/23 09:05:51;;;;;;;42.38;26.63;;;0.10;99.90;;;;;;5013787;28;20014;-74
2023/01/23 09:08:17;;;;;;;38.38;24.25;;;0.20;99.90;;;;;;5012996;28;20122;-74
2023/01/23 09:10:42;;;;;;;36.80;23.60;;;0.20;99.90;;;;;;5011444;28;20022;-74
2023/01/23 09:13:08;;;;;;;37.80;21.02;;;0.20;99.90;;;;;;5012881;28;20036;-73
2023/01/23 09:15:38;;;;;;;33.10;19.48;;;0.20;99.90;;;;;;5011621;28;20108;-73
2023/01/23 09:18:04;;;;;;;37.80;22.08;;;0.20;99.90;;;;;;5012886;28;20453;-74
2023/01/23 09:20:29;;;;;;;37.05;22.90;;;0.20;99.90;;;;;;5012688;28;20022;-73
2023/01/23 09:22:55;;;;;;;38.15;23.35;;;0.20;99.90;;;;;;5014607;28;20022;-73
2023/01/23 09:25:21;;;;;;;37.28;24.23;;;0.20;99.90;;;;;;5011556;28;20026;-73
2023/01/23 09:27:46;;;;;;;38.25;24.23;;;0.20;99.90;;;;;;5012930;28;20080;-73
2023/01/23 09:30:13;;;;;;;45.08;27.00;;;0.20;99.90;;;;;;5010499;28;20030;-73
2023/01/23 09:32:38;;;;;;;36.00;24.83;;;0.20;99.90;;;;;;5014484;28;20034;-73
2023/01/23 09:35:04;;;;;;;39.90;24.60;;;0.20;99.90;;;;;;5013509;28;20030;-73
2023/01/23 09:37:58;;;;;;;36.22;25.40;;;0.20;99.90;;;;;;5015853;28;20137;-73
2023/01/23 09:40:21;;;;;;;35.65;24.45;;;0.20;99.90;;;;;;5014139;28;20026;-74
2023/01/23 09:42:48;;;;;;;40.88;24.73;;;0.20;99.90;;;;;;5014921;28;20029;-74
2023/01/23 09:45:19;;;;;;;34.80;24.23;;;0.20;99.90;;;;;;5012340;28;20399;-74
2023/01/23 09:48:03;;;;;;;34.95;22.77;;;0.30;99.90;;;;;;5015897;28;20037;-74
2023/01/23 09:50:33;;;;;;;38.92;26.83;;;0.20;99.90;;;;;;5012735;28;20042;-74
2023/01/23 09:53:06;;;;;;;38.60;26.15;;;0.20;99.90;;;;;;5012486;28;20525;-72
2023/01/23 09:55:44;;;;;;;29.17;19.63;;;0.20;99.90;;;;;;5014955;28;20052;-72
2023/01/23 09:58:35;;;;;;;31.70;20.88;;;0.20;99.90;;;;;;5013288;28;20088;-72
2023/01/23 10:01:00;;;;;;;41.17;27.25;;;0.30;99.90;;;;;;5011890;28;20098;-72
2023/01/23 10:03:30;;;;;;;39.25;26.30;;;0.30;99.90;;;;;;5013016;28;20030;-72
2023/01/23 10:05:59;;;;;;;39.58;24.95;;;0.30;99.90;;;;;;5014295;28;20053;-72
2023/01/23 10:08:51;;;;;;;41.08;24.60;;;0.40;99.90;;;;;;5011918;28;20036;-72
2023/01/23 10:11:27;;;;;;;38.47;24.88;;;0.40;99.90;;;;;;5011786;28;20037;-73
2023/01/23 10:14:05;;;;;;;33.55;22.35;;;0.40;99.90;;;;;;5014397;28;20038;-73
2023/01/23 10:16:36;;;;;;;28.05;18.80;;;0.30;99.90;;;;;;5017731;28;20029;-72
2023/01/23 10:19:14;;;;;;;39.85;26.00;;;0.30;99.90;;;;;;5025765;28;20065;-72
2023/01/23 10:21:52;;;;;;;32.53;22.00;;;0.30;99.90;;;;;;5017880;28;20022;-72
2023/01/23 10:24:26;;;;;;;35.53;25.98;;;0.30;99.90;;;;;;5012739;28;20458;-71
2023/01/23 10:26:57;;;;;;;37.75;25.98;;;0.30;99.90;;;;;;5014095;28;20022;-72
2023/01/23 10:29:35;;;;;;;40.28;27.60;;;0.30;99.90;;;;;;5011014;28;20030;-71
2023/01/23 10:32:04;;;;;;;30.23;19.40;;;0.30;99.90;;;;;;5015503;28;20030;-72
2023/01/23 10:34:44;;;;;;;43.10;27.42;;;0.30;99.90;;;;;;5014588;28;20030;-71
2023/01/23 10:37:34;;;;;;;37.65;23.98;;;0.40;99.90;;;;;;5016263;28;20390;-71
2023/01/23 10:40:10;;;;;;;37.60;23.98;;;0.40;99.90;;;;;;5013218;28;20026;-71
2023/01/23 10:42:35;;;;;;;37.35;26.02;;;0.40;99.90;;;;;;5015261;28;20026;-72
2023/01/23 10:45:01;;;;;;;38.50;26.20;;;0.40;99.90;;;;;;5013341;28;20173;-72
2023/01/23 10:47:27;;;;;;;37.30;22.33;;;0.40;99.90;;;;;;5017999;28;20025;-72
2023/01/23 10:49:52;;;;;;;36.92;25.65;;;0.40;99.90;;;;;;5008431;28;20440;-71
2023/01/23 10:52:43;;;;;;;35.08;26.80;;;0.40;99.90;;;;;;5017557;28;20070;-72
2023/01/23 10:55:29;;;;;;;;;;;0.40;99.90;;;;;;5009538;28;20044;-72
2023/01/23 10:58:01;;;;;;;36.10;24.80;;;0.40;99.90;;;;;;5017806;28;19909;-72
2023/01/23 11:00:26;;;;;;;38.28;25.80;;;0.40;99.90;;;;;;5010212;28;20025;-71
2023/01/23 11:02:52;;;;;;;39.58;25.38;;;0.40;99.90;;;;;;5018544;28;20044;-72
2023/01/23 11:05:42;;;;;;;35.42;24.42;;;0.40;99.90;;;;;;5005196;28;20098;-72
2023/01/23 11:08:27;;;;;;;30.27;21.60;;;0.40;99.90;;;;;;5013632;28;20143;-73
2023/01/23 11:11:10;;;;;;;33.25;21.63;;;0.40;99.90;;;;;;5023236;28;20038;-72
2023/01/23 11:13:36;;;;;;;23.90;16.80;;;0.40;99.90;;;;;;5011209;28;20582;-72
2023/01/23 11:16:01;;;;;;;31.40;21.73;;;0.30;99.90;;;;;;5009827;28;20093;-72
2023/01/23 11:18:33;;;;;;;19.38;17.25;;;0.40;99.90;;;;;;5014928;28;20053;-73
2023/01/23 11:21:00;;;;;;;26.52;20.05;;;0.40;99.90;;;;;;5015715;28;20010;-72
2023/01/23 11:23:27;;;;;;;33.60;25.70;;;0.40;99.90;;;;;;5014367;28;20065;-73
2023/01/23 11:25:54;;;;;;;36.92;25.40;;;0.40;99.90;;;;;;5012487;28;20409;-73
2023/01/23 11:28:24;;;;;;;38.05;25.77;;;0.40;99.90;;;;;;5014591;28;20530;-72
2023/01/23 11:30:58;;;;;;;33.45;23.40;;;0.50;99.90;;;;;;5014291;28;20022;-72
2023/01/23 11:33:24;;;;;;;31.83;22.48;;;0.40;99.90;;;;;;5016039;28;20397;-72
2023/01/23 11:36:17;;;;;;;35.15;25.90;;;0.40;99.90;;;;;;5015547;28;20033;-73
2023/01/23 11:39:12;;;;;;;30.92;21.27;;;0.50;99.90;;;;;;5015225;28;20034;-72
2023/01/23 11:41:38;;;;;;;33.13;20.48;;;0.50;99.90;;;;;;5010049;28;20026;-73
2023/01/23 11:44:16;;;;;;;37.03;24.75;;;0.50;99.90;;;;;;5014867;28;20034;-73
2023/01/23 11:46:51;;;;;;;34.08;23.20;;;0.50;99.90;;;;;;5017352;28;20018;-72
2023/01/23 11:49:35;;;;;;;38.20;25.27;;;0.50;99.90;;;;;;5012344;28;20114;-73
2023/01/23 11:52:29;;;;;;;26.33;19.05;;;0.50;99.90;;;;;;5015796;28;20641;-73
2023/01/23 11:55:33;;;;;;;28.35;18.90;;;0.50;99.90;;;;;;5008846;28;20068;-73
2023/01/23 11:58:13;;;;;;;42.50;26.80;;;0.50;99.90;;;;;;5015089;28;20045;-72
2023/01/23 12:00:41;;;;;;;33.65;23.27;;;0.50;99.90;;;;;;5011965;28;20025;-72
2023/01/23 12:03:10;;;;;;;35.30;25.48;;;0.50;99.90;;;;;;5016064;28;20104;-72
2023/01/23 12:06:07;;;;;;;36.38;25.25;;;0.60;99.90;;;;;;5011133;28;20022;-72
2023/01/23 12:09:05;;;;;;;29.45;21.67;;;0.60;99.90;;;;;;5001231;28;20068;-73
2023/01/23 12:11:56;;;;;;;36.17;26.58;;;0.60;99.90;;;;;;5025860;28;20033;-72
2023/01/23 12:14:28;;;;;;;38.05;24.90;;;0.60;99.90;;;;;;5011050;28;20042;-73
2023/01/23 12:17:07;;;;;;;32.85;24.17;;;0.60;99.90;;;;;;5016811;28;20026;-73
2023/01/23 12:20:17;;;;;;;34.65;22.58;;;0.60;99.90;;;;;;5010740;28;20080;-73
2023/01/23 12:23:20;;;;;;;38.13;26.00;;;0.70;99.90;;;;;;5017788;28;20022;-70
2023/01/23 12:26:14;;;;;;;32.75;19.65;;;0.70;99.90;;;;;;5014535;28;20018;-73
2023/01/23 12:28:48;;;;;;;34.00;22.85;;;0.70;99.90;;;;;;5014425;28;20502;-73
2023/01/23 12:31:26;;;;;;;29.85;21.58;;;0.70;99.90;;;;;;5006993;28;20204;-74
2023/01/23 12:34:27;;;;;;;34.40;24.35;;;0.70;99.90;;;;;;5013014;28;20030;-73
2023/01/23 12:37:14;;;;;;;24.20;17.38;;;0.70;99.90;;;;;;5013901;28;20517;-73
2023/01/23 12:40:21;;;;;;;32.03;23.98;;;0.70;99.90;;;;;;5014004;28;20041;-73
2023/01/23 12:43:05;;;;;;;32.80;23.08;;;0.70;99.90;;;;;;5014427;28;20113;-72
2023/01/23 12:45:32;;;;;;;33.08;23.95;;;0.60;99.90;;;;;;5026083;28;20060;-72
2023/01/23 12:48:01;;;;;;;33.28;24.27;;;0.60;99.90;;;;;;5016069;28;20048;-73
2023/01/23 12:50:55;;;;;;;37.00;23.13;;;0.60;99.90;;;;;;5015237;28;20072;-73